Terminal Aerodrome Forecast
Issued by NWS

Home | Current Version | Previous Version | Graphics & Text | Print | Product List | Glossary On
Versions: 1 2 3 4 5 6 7 8 9 10 11 12 13 14 15 16 17
497
FTUS43 KOAX 201141
TAFCDR
TAF
KCDR 201141Z 2012/2112 28018KT P6SM SCT150
     FM201800 29017G25KT P6SM FEW150
     FM210000 23012KT P6SM BKN150=

USA.gov is the U.S. government's official web portal to all federal, state and local government web resources and services.